Accueil
METAR-TAF:

METAR-TAF

Aéroports :

Tromsø, Norvège

Aéroport de Tromsø

latitude: 69-41N, longitude: 018-55E, altitude: 1 m

Observation

Le bulletin a été fait il y a 31 minutes, à 07:50 UTC
Vent calme
Température 3°C
Humidité 93%
Pression 1009 hPa
Visibilité 10 km ou plus
Nuages fragmentés à une hauteur de 500 ft

METAR: ENTC 200750Z 00000KT 9999 BKN005 03/02 Q1009 TEMPO 4500 RADZ BKN004 RMK WIND 2600FT 18006KT

Heure: 10:21 (08:21 UTC)

Prévision

Prévision valable du 20 à 06 UTC au 21 à 06 UTC
Vent 8 kt de sud/sud-ouest
Visibilité 10 km ou plus
Nuages épars à une hauteur de 1200 ft
Nuages fragmentés à une hauteur de 2000 ft
Temporairement
du 20 à 06 UTC au 20 à 15 UTC
Visibilité: 4500 m
Nuages fragmentés à une hauteur de 600 ft
pluie, bruine

TAF: ENTC 2006/2106 20008KT 9999 SCT012 BKN020 TEMPO 2006/2015 4500 RADZ BKN006

Observations et prévisions météorologiques de plus de 4000 aéroports (messages METAR et TAF).

Les stations disponibles sont représentées par des disques jaunes et rouges sur la carte.

Passer la souris dessus pour voir le nom de la station.

Cliquer dessus pour voir les observations et prévisions météorologiques.

Pour changer de carte: cliquez sur les boutons verts avec une croix noire pour zoomer, sur le bouton vert avec un tiret pour effectuer un zoom arrière, ou sur les flèches vertes pour les cartes adjacentes.


METAR-TAF: